sensor_id;sensor_type;location;lat;lon;timestamp;P1;durP1;ratioP1;P2;durP2;ratioP2
44774;SDS011;31340;51.402;0.016;2022-12-07T00:04:22;26.00;;;11.05;;
44774;SDS011;31340;51.402;0.016;2022-12-07T00:06:51;28.08;;;12.02;;
44774;SDS011;31340;51.402;0.016;2022-12-07T00:10:01;24.90;;;9.98;;
44774;SDS011;31340;51.402;0.016;2022-12-07T00:15:00;25.85;;;11.10;;
44774;SDS011;31340;51.402;0.016;2022-12-07T00:17:31;23.20;;;10.63;;
44774;SDS011;31340;51.402;0.016;2022-12-07T00:20:04;24.95;;;10.55;;
44774;SDS011;31340;51.402;0.016;2022-12-07T00:22:32;27.88;;;10.60;;
44774;SDS011;31340;51.402;0.016;2022-12-07T00:25:00;22.25;;;10.63;;
44774;SDS011;31340;51.402;0.016;2022-12-07T00:27:38;24.08;;;10.23;;
44774;SDS011;31340;51.402;0.016;2022-12-07T00:30:06;23.00;;;10.10;;
44774;SDS011;31340;51.402;0.016;2022-12-07T00:32:34;23.90;;;10.27;;
44774;SDS011;31340;51.402;0.016;2022-12-07T00:35:02;24.85;;;10.93;;
44774;SDS011;31340;51.402;0.016;2022-12-07T00:37:49;22.13;;;10.35;;
44774;SDS011;31340;51.402;0.016;2022-12-07T00:40:17;28.98;;;10.55;;
44774;SDS011;31340;51.402;0.016;2022-12-07T00:42:51;25.65;;;9.95;;
44774;SDS011;31340;51.402;0.016;2022-12-07T00:45:19;20.98;;;9.63;;
44774;SDS011;31340;51.402;0.016;2022-12-07T00:47:49;28.50;;;9.88;;
44774;SDS011;31340;51.402;0.016;2022-12-07T00:50:26;20.48;;;9.98;;
44774;SDS011;31340;51.402;0.016;2022-12-07T00:52:57;26.33;;;10.57;;
44774;SDS011;31340;51.402;0.016;2022-12-07T00:55:34;23.23;;;9.50;;
44774;SDS011;31340;51.402;0.016;2022-12-07T00:58:03;19.55;;;9.45;;
44774;SDS011;31340;51.402;0.016;2022-12-07T01:00:31;23.25;;;8.90;;
44774;SDS011;31340;51.402;0.016;2022-12-07T01:03:04;23.67;;;9.80;;
44774;SDS011;31340;51.402;0.016;2022-12-07T01:05:35;19.85;;;10.20;;
44774;SDS011;31340;51.402;0.016;2022-12-07T01:10:35;28.77;;;11.02;;
44774;SDS011;31340;51.402;0.016;2022-12-07T01:13:09;27.58;;;10.35;;
44774;SDS011;31340;51.402;0.016;2022-12-07T01:15:39;29.08;;;10.77;;
44774;SDS011;31340;51.402;0.016;2022-12-07T01:18:11;24.67;;;10.70;;
44774;SDS011;31340;51.402;0.016;2022-12-07T01:20:39;22.23;;;9.35;;
44774;SDS011;31340;51.402;0.016;2022-12-07T01:23:10;24.27;;;9.85;;
44774;SDS011;31340;51.402;0.016;2022-12-07T01:25:39;22.45;;;10.63;;
44774;SDS011;31340;51.402;0.016;2022-12-07T01:28:07;24.17;;;9.50;;
44774;SDS011;31340;51.402;0.016;2022-12-07T01:30:34;25.85;;;10.10;;
44774;SDS011;31340;51.402;0.016;2022-12-07T01:33:02;28.35;;;10.65;;
44774;SDS011;31340;51.402;0.016;2022-12-07T01:35:30;23.15;;;9.68;;
44774;SDS011;31340;51.402;0.016;2022-12-07T01:38:00;24.73;;;11.20;;
44774;SDS011;31340;51.402;0.016;2022-12-07T01:40:28;25.75;;;10.65;;
44774;SDS011;31340;51.402;0.016;2022-12-07T01:42:55;22.30;;;10.40;;
44774;SDS011;31340;51.402;0.016;2022-12-07T01:45:41;21.70;;;10.15;;
44774;SDS011;31340;51.402;0.016;2022-12-07T01:48:09;21.88;;;9.77;;
44774;SDS011;31340;51.402;0.016;2022-12-07T01:50:40;23.17;;;9.32;;
44774;SDS011;31340;51.402;0.016;2022-12-07T01:53:09;17.45;;;9.43;;
44774;SDS011;31340;51.402;0.016;2022-12-07T01:55:38;30.55;;;10.00;;
44774;SDS011;31340;51.402;0.016;2022-12-07T02:00:36;22.98;;;9.77;;
44774;SDS011;31340;51.402;0.016;2022-12-07T02:03:13;24.20;;;9.85;;
44774;SDS011;31340;51.402;0.016;2022-12-07T02:05:46;22.67;;;9.60;;
44774;SDS011;31340;51.402;0.016;2022-12-07T02:08:14;26.27;;;9.75;;
44774;SDS011;31340;51.402;0.016;2022-12-07T02:10:42;23.30;;;10.07;;
44774;SDS011;31340;51.402;0.016;2022-12-07T02:13:11;21.85;;;9.80;;
44774;SDS011;31340;51.402;0.016;2022-12-07T02:15:50;24.98;;;10.60;;
44774;SDS011;31340;51.402;0.016;2022-12-07T02:27:06;26.20;;;9.52;;
44774;SDS011;31340;51.402;0.016;2022-12-07T02:29:37;23.52;;;10.30;;
44774;SDS011;31340;51.402;0.016;2022-12-07T02:35:17;22.98;;;9.57;;
44774;SDS011;31340;51.402;0.016;2022-12-07T02:37:51;19.23;;;9.27;;
44774;SDS011;31340;51.402;0.016;2022-12-07T02:40:34;23.10;;;10.43;;
44774;SDS011;31340;51.402;0.016;2022-12-07T02:43:17;23.42;;;10.15;;
44774;SDS011;31340;51.402;0.016;2022-12-07T02:45:55;18.02;;;9.75;;
44774;SDS011;31340;51.402;0.016;2022-12-07T02:48:27;33.33;;;11.05;;
44774;SDS011;31340;51.402;0.016;2022-12-07T02:50:55;27.25;;;11.88;;
44774;SDS011;31340;51.402;0.016;2022-12-07T02:56:05;22.05;;;10.85;;
44774;SDS011;31340;51.402;0.016;2022-12-07T03:07:54;26.55;;;11.90;;
44774;SDS011;31340;51.402;0.016;2022-12-07T03:10:28;25.23;;;11.40;;
44774;SDS011;31340;51.402;0.016;2022-12-07T03:13:05;26.00;;;10.93;;
44774;SDS011;31340;51.402;0.016;2022-12-07T03:15:49;27.13;;;11.60;;
44774;SDS011;31340;51.402;0.016;2022-12-07T03:18:30;26.67;;;10.23;;
44774;SDS011;31340;51.402;0.016;2022-12-07T03:21:04;22.10;;;10.75;;
44774;SDS011;31340;51.402;0.016;2022-12-07T03:23:37;22.48;;;10.55;;
44774;SDS011;31340;51.402;0.016;2022-12-07T03:26:08;22.63;;;9.93;;
44774;SDS011;31340;51.402;0.016;2022-12-07T03:28:40;21.73;;;10.27;;
44774;SDS011;31340;51.402;0.016;2022-12-07T03:31:18;23.45;;;11.73;;
44774;SDS011;31340;51.402;0.016;2022-12-07T03:33:55;26.55;;;11.40;;
44774;SDS011;31340;51.402;0.016;2022-12-07T03:36:48;22.17;;;11.10;;
44774;SDS011;31340;51.402;0.016;2022-12-07T03:42:11;25.35;;;11.50;;
44774;SDS011;31340;51.402;0.016;2022-12-07T03:44:39;24.30;;;10.82;;
44774;SDS011;31340;51.402;0.016;2022-12-07T03:47:12;19.58;;;11.25;;
44774;SDS011;31340;51.402;0.016;2022-12-07T03:52:37;24.85;;;10.95;;
44774;SDS011;31340;51.402;0.016;2022-12-07T03:57:46;23.48;;;10.90;;
44774;SDS011;31340;51.402;0.016;2022-12-07T04:00:17;28.75;;;11.63;;
44774;SDS011;31340;51.402;0.016;2022-12-07T04:02:45;22.80;;;10.55;;
44774;SDS011;31340;51.402;0.016;2022-12-07T04:05:14;22.83;;;10.45;;
44774;SDS011;31340;51.402;0.016;2022-12-07T04:07:41;22.58;;;11.07;;
44774;SDS011;31340;51.402;0.016;2022-12-07T04:10:09;22.13;;;11.00;;
44774;SDS011;31340;51.402;0.016;2022-12-07T04:12:37;28.40;;;11.98;;
44774;SDS011;31340;51.402;0.016;2022-12-07T04:15:04;26.85;;;11.05;;
44774;SDS011;31340;51.402;0.016;2022-12-07T04:17:33;22.67;;;10.95;;
44774;SDS011;31340;51.402;0.016;2022-12-07T04:20:00;24.45;;;10.93;;
44774;SDS011;31340;51.402;0.016;2022-12-07T04:22:29;27.67;;;11.38;;
44774;SDS011;31340;51.402;0.016;2022-12-07T04:24:56;28.17;;;10.65;;
44774;SDS011;31340;51.402;0.016;2022-12-07T04:27:23;23.77;;;11.25;;
44774;SDS011;31340;51.402;0.016;2022-12-07T04:29:51;24.17;;;10.80;;
44774;SDS011;31340;51.402;0.016;2022-12-07T04:32:19;26.35;;;11.52;;
44774;SDS011;31340;51.402;0.016;2022-12-07T04:34:46;27.67;;;11.40;;
44774;SDS011;31340;51.402;0.016;2022-12-07T04:37:21;23.63;;;10.50;;
44774;SDS011;31340;51.402;0.016;2022-12-07T04:39:49;26.33;;;9.98;;
44774;SDS011;31340;51.402;0.016;2022-12-07T04:42:16;24.27;;;10.85;;
44774;SDS011;31340;51.402;0.016;2022-12-07T04:44:44;24.55;;;10.55;;
44774;SDS011;31340;51.402;0.016;2022-12-07T04:47:11;26.13;;;10.77;;
44774;SDS011;31340;51.402;0.016;2022-12-07T04:49:39;25.10;;;11.25;;
44774;SDS011;31340;51.402;0.016;2022-12-07T04:52:06;19.65;;;11.18;;
44774;SDS011;31340;51.402;0.016;2022-12-07T04:54:34;22.83;;;10.45;;
44774;SDS011;31340;51.402;0.016;2022-12-07T04:57:01;20.83;;;10.85;;
44774;SDS011;31340;51.402;0.016;2022-12-07T04:59:29;27.88;;;10.52;;
44774;SDS011;31340;51.402;0.016;2022-12-07T05:01:56;27.23;;;10.63;;
44774;SDS011;31340;51.402;0.016;2022-12-07T05:04:24;22.80;;;10.80;;
44774;SDS011;31340;51.402;0.016;2022-12-07T05:06:51;18.15;;;9.70;;
44774;SDS011;31340;51.402;0.016;2022-12-07T05:09:19;19.38;;;9.27;;
44774;SDS011;31340;51.402;0.016;2022-12-07T05:11:46;17.75;;;9.00;;
44774;SDS011;31340;51.402;0.016;2022-12-07T05:14:17;23.50;;;9.80;;
44774;SDS011;31340;51.402;0.016;2022-12-07T05:16:48;24.30;;;9.70;;
44774;SDS011;31340;51.402;0.016;2022-12-07T05:19:18;27.15;;;9.70;;
44774;SDS011;31340;51.402;0.016;2022-12-07T05:21:46;23.90;;;9.32;;
44774;SDS011;31340;51.402;0.016;2022-12-07T05:24:14;25.25;;;10.90;;
44774;SDS011;31340;51.402;0.016;2022-12-07T05:26:43;20.80;;;9.23;;
44774;SDS011;31340;51.402;0.016;2022-12-07T05:29:15;19.05;;;9.18;;
44774;SDS011;31340;51.402;0.016;2022-12-07T05:31:44;23.13;;;9.40;;
44774;SDS011;31340;51.402;0.016;2022-12-07T05:34:12;19.58;;;9.50;;
44774;SDS011;31340;51.402;0.016;2022-12-07T05:36:40;17.42;;;8.27;;
44774;SDS011;31340;51.402;0.016;2022-12-07T05:39:07;16.38;;;8.20;;
44774;SDS011;31340;51.402;0.016;2022-12-07T05:41:35;20.15;;;8.23;;
44774;SDS011;31340;51.402;0.016;2022-12-07T05:44:21;18.40;;;8.98;;
44774;SDS011;31340;51.402;0.016;2022-12-07T05:46:49;20.77;;;8.50;;
44774;SDS011;31340;51.402;0.016;2022-12-07T05:49:17;17.88;;;8.80;;
44774;SDS011;31340;51.402;0.016;2022-12-07T05:51:44;20.10;;;8.27;;
44774;SDS011;31340;51.402;0.016;2022-12-07T05:54:12;19.30;;;8.25;;
44774;SDS011;31340;51.402;0.016;2022-12-07T05:56:40;18.15;;;8.52;;
44774;SDS011;31340;51.402;0.016;2022-12-07T05:59:08;16.58;;;8.25;;
44774;SDS011;31340;51.402;0.016;2022-12-07T06:01:58;16.73;;;8.70;;
44774;SDS011;31340;51.402;0.016;2022-12-07T06:04:28;17.30;;;7.93;;
44774;SDS011;31340;51.402;0.016;2022-12-07T06:06:57;20.13;;;8.18;;
44774;SDS011;31340;51.402;0.016;2022-12-07T06:09:25;16.73;;;7.65;;
44774;SDS011;31340;51.402;0.016;2022-12-07T06:11:54;18.92;;;8.60;;
44774;SDS011;31340;51.402;0.016;2022-12-07T06:14:41;26.27;;;9.07;;
44774;SDS011;31340;51.402;0.016;2022-12-07T06:17:09;24.48;;;9.43;;
44774;SDS011;31340;51.402;0.016;2022-12-07T06:19:38;24.77;;;8.75;;
44774;SDS011;31340;51.402;0.016;2022-12-07T06:22:06;17.38;;;8.85;;
44774;SDS011;31340;51.402;0.016;2022-12-07T06:24:34;20.98;;;8.27;;
44774;SDS011;31340;51.402;0.016;2022-12-07T06:27:02;14.95;;;8.30;;
44774;SDS011;31340;51.402;0.016;2022-12-07T06:29:30;18.35;;;8.45;;
44774;SDS011;31340;51.402;0.016;2022-12-07T06:31:58;18.92;;;8.90;;
44774;SDS011;31340;51.402;0.016;2022-12-07T06:34:26;20.33;;;8.40;;
44774;SDS011;31340;51.402;0.016;2022-12-07T06:36:54;25.27;;;8.50;;
44774;SDS011;31340;51.402;0.016;2022-12-07T06:39:26;19.05;;;8.95;;
44774;SDS011;31340;51.402;0.016;2022-12-07T06:41:55;18.92;;;8.40;;
44774;SDS011;31340;51.402;0.016;2022-12-07T06:44:24;21.63;;;8.82;;
44774;SDS011;31340;51.402;0.016;2022-12-07T06:46:52;18.30;;;9.52;;
44774;SDS011;31340;51.402;0.016;2022-12-07T06:49:40;18.13;;;9.05;;
44774;SDS011;31340;51.402;0.016;2022-12-07T06:52:08;21.98;;;8.77;;
44774;SDS011;31340;51.402;0.016;2022-12-07T06:54:35;19.45;;;9.43;;
44774;SDS011;31340;51.402;0.016;2022-12-07T06:57:03;20.95;;;9.65;;
44774;SDS011;31340;51.402;0.016;2022-12-07T06:59:31;21.05;;;9.52;;
44774;SDS011;31340;51.402;0.016;2022-12-07T07:01:59;24.42;;;9.75;;
44774;SDS011;31340;51.402;0.016;2022-12-07T07:04:26;20.88;;;9.63;;
44774;SDS011;31340;51.402;0.016;2022-12-07T07:06:54;20.85;;;10.20;;
44774;SDS011;31340;51.402;0.016;2022-12-07T07:09:26;24.27;;;10.05;;
44774;SDS011;31340;51.402;0.016;2022-12-07T07:11:54;16.73;;;9.93;;
44774;SDS011;31340;51.402;0.016;2022-12-07T07:14:21;21.75;;;10.25;;
44774;SDS011;31340;51.402;0.016;2022-12-07T07:16:49;25.05;;;9.90;;
44774;SDS011;31340;51.402;0.016;2022-12-07T07:19:17;24.50;;;10.27;;
44774;SDS011;31340;51.402;0.016;2022-12-07T07:21:44;26.50;;;10.43;;
44774;SDS011;31340;51.402;0.016;2022-12-07T07:24:12;23.05;;;10.35;;
44774;SDS011;31340;51.402;0.016;2022-12-07T07:26:39;20.00;;;9.80;;
44774;SDS011;31340;51.402;0.016;2022-12-07T07:29:07;20.88;;;10.48;;
44774;SDS011;31340;51.402;0.016;2022-12-07T07:31:34;21.95;;;10.35;;
44774;SDS011;31340;51.402;0.016;2022-12-07T07:34:02;22.40;;;10.20;;
44774;SDS011;31340;51.402;0.016;2022-12-07T07:36:30;23.95;;;10.65;;
44774;SDS011;31340;51.402;0.016;2022-12-07T07:38:58;24.55;;;10.90;;
44774;SDS011;31340;51.402;0.016;2022-12-07T07:41:25;23.98;;;10.63;;
44774;SDS011;31340;51.402;0.016;2022-12-07T07:43:53;23.67;;;11.20;;
44774;SDS011;31340;51.402;0.016;2022-12-07T07:46:22;20.83;;;10.40;;
44774;SDS011;31340;51.402;0.016;2022-12-07T07:48:50;19.85;;;10.57;;
44774;SDS011;31340;51.402;0.016;2022-12-07T07:51:17;22.10;;;10.88;;
44774;SDS011;31340;51.402;0.016;2022-12-07T07:53:45;25.67;;;10.57;;
44774;SDS011;31340;51.402;0.016;2022-12-07T07:56:13;21.88;;;11.32;;
44774;SDS011;31340;51.402;0.016;2022-12-07T07:58:41;27.45;;;11.40;;
44774;SDS011;31340;51.402;0.016;2022-12-07T08:01:09;22.52;;;10.40;;
44774;SDS011;31340;51.402;0.016;2022-12-07T08:03:36;22.55;;;11.90;;
44774;SDS011;31340;51.402;0.016;2022-12-07T08:06:06;28.80;;;12.00;;
44774;SDS011;31340;51.402;0.016;2022-12-07T08:08:34;24.02;;;10.50;;
44774;SDS011;31340;51.402;0.016;2022-12-07T08:11:04;26.25;;;11.30;;
44774;SDS011;31340;51.402;0.016;2022-12-07T08:13:33;23.40;;;10.57;;
44774;SDS011;31340;51.402;0.016;2022-12-07T08:16:04;28.10;;;10.80;;
44774;SDS011;31340;51.402;0.016;2022-12-07T08:18:35;20.95;;;11.05;;
44774;SDS011;31340;51.402;0.016;2022-12-07T08:21:04;19.05;;;10.85;;
44774;SDS011;31340;51.402;0.016;2022-12-07T08:23:33;22.42;;;9.40;;
44774;SDS011;31340;51.402;0.016;2022-12-07T08:26:07;20.83;;;10.10;;
44774;SDS011;31340;51.402;0.016;2022-12-07T08:28:36;19.20;;;8.80;;
44774;SDS011;31340;51.402;0.016;2022-12-07T08:31:05;21.80;;;8.75;;
44774;SDS011;31340;51.402;0.016;2022-12-07T08:33:46;17.92;;;8.88;;
44774;SDS011;31340;51.402;0.016;2022-12-07T08:36:15;19.02;;;9.05;;
44774;SDS011;31340;51.402;0.016;2022-12-07T08:38:43;28.13;;;8.88;;
44774;SDS011;31340;51.402;0.016;2022-12-07T08:41:31;22.95;;;9.27;;
44774;SDS011;31340;51.402;0.016;2022-12-07T08:43:59;16.83;;;8.85;;
44774;SDS011;31340;51.402;0.016;2022-12-07T08:49:16;26.27;;;9.43;;
44774;SDS011;31340;51.402;0.016;2022-12-07T08:51:46;20.95;;;9.57;;
44774;SDS011;31340;51.402;0.016;2022-12-07T08:54:16;19.70;;;9.68;;
44774;SDS011;31340;51.402;0.016;2022-12-07T08:56:45;23.77;;;9.65;;
44774;SDS011;31340;51.402;0.016;2022-12-07T08:59:17;22.52;;;10.35;;
44774;SDS011;31340;51.402;0.016;2022-12-07T09:01:47;21.67;;;10.45;;
44774;SDS011;31340;51.402;0.016;2022-12-07T09:04:15;40.90;;;12.13;;
44774;SDS011;31340;51.402;0.016;2022-12-07T09:06:43;20.02;;;10.35;;
44774;SDS011;31340;51.402;0.016;2022-12-07T09:09:11;17.10;;;8.10;;
44774;SDS011;31340;51.402;0.016;2022-12-07T09:11:40;14.57;;;7.90;;
44774;SDS011;31340;51.402;0.016;2022-12-07T09:14:07;12.38;;;7.45;;
44774;SDS011;31340;51.402;0.016;2022-12-07T09:16:35;20.35;;;8.68;;
44774;SDS011;31340;51.402;0.016;2022-12-07T09:19:03;15.65;;;7.72;;
44774;SDS011;31340;51.402;0.016;2022-12-07T09:21:31;17.73;;;8.48;;
44774;SDS011;31340;51.402;0.016;2022-12-07T09:23:58;20.10;;;8.98;;
44774;SDS011;31340;51.402;0.016;2022-12-07T09:26:26;19.67;;;8.88;;
44774;SDS011;31340;51.402;0.016;2022-12-07T09:28:54;20.60;;;8.30;;
44774;SDS011;31340;51.402;0.016;2022-12-07T09:31:21;17.13;;;8.48;;
44774;SDS011;31340;51.402;0.016;2022-12-07T09:33:58;13.75;;;8.32;;
44774;SDS011;31340;51.402;0.016;2022-12-07T09:36:27;20.60;;;8.75;;
44774;SDS011;31340;51.402;0.016;2022-12-07T09:38:55;18.30;;;8.52;;
44774;SDS011;31340;51.402;0.016;2022-12-07T09:41:23;17.60;;;8.05;;
44774;SDS011;31340;51.402;0.016;2022-12-07T09:43:53;16.63;;;8.48;;
44774;SDS011;31340;51.402;0.016;2022-12-07T09:46:39;21.08;;;7.72;;
44774;SDS011;31340;51.402;0.016;2022-12-07T09:49:11;18.95;;;7.72;;
44774;SDS011;31340;51.402;0.016;2022-12-07T09:51:41;18.52;;;7.03;;
44774;SDS011;31340;51.402;0.016;2022-12-07T09:54:11;18.05;;;7.78;;
44774;SDS011;31340;51.402;0.016;2022-12-07T09:56:41;19.83;;;7.13;;
44774;SDS011;31340;51.402;0.016;2022-12-07T09:59:12;18.20;;;7.47;;
44774;SDS011;31340;51.402;0.016;2022-12-07T10:01:46;15.25;;;7.68;;
44774;SDS011;31340;51.402;0.016;2022-12-07T10:04:18;16.42;;;7.30;;
44774;SDS011;31340;51.402;0.016;2022-12-07T10:06:48;17.25;;;8.20;;
44774;SDS011;31340;51.402;0.016;2022-12-07T10:09:19;17.52;;;8.57;;
44774;SDS011;31340;51.402;0.016;2022-12-07T10:14:33;18.98;;;8.60;;
44774;SDS011;31340;51.402;0.016;2022-12-07T10:17:29;17.42;;;8.55;;
44774;SDS011;31340;51.402;0.016;2022-12-07T10:20:18;18.25;;;7.82;;
44774;SDS011;31340;51.402;0.016;2022-12-07T10:25:29;18.58;;;8.63;;
44774;SDS011;31340;51.402;0.016;2022-12-07T10:33:33;17.70;;;7.67;;
44774;SDS011;31340;51.402;0.016;2022-12-07T10:36:01;19.95;;;9.25;;
44774;SDS011;31340;51.402;0.016;2022-12-07T10:41:25;17.92;;;7.40;;
44774;SDS011;31340;51.402;0.016;2022-12-07T10:43:53;16.75;;;7.65;;
44774;SDS011;31340;51.402;0.016;2022-12-07T10:56:09;20.58;;;7.95;;
44774;SDS011;31340;51.402;0.016;2022-12-07T10:58:23;21.33;;;8.52;;
44774;SDS011;31340;51.402;0.016;2022-12-07T11:03:55;17.88;;;7.95;;
44774;SDS011;31340;51.402;0.016;2022-12-07T11:07:01;16.80;;;7.40;;
44774;SDS011;31340;51.402;0.016;2022-12-07T11:18:22;17.25;;;8.77;;
44774;SDS011;31340;51.402;0.016;2022-12-07T11:21:03;18.92;;;7.68;;
44774;SDS011;31340;51.402;0.016;2022-12-07T11:29:19;13.77;;;7.13;;
44774;SDS011;31340;51.402;0.016;2022-12-07T11:37:45;19.58;;;8.27;;
44774;SDS011;31340;51.402;0.016;2022-12-07T11:42:59;17.80;;;7.60;;
44774;SDS011;31340;51.402;0.016;2022-12-07T11:45:34;21.55;;;7.65;;
44774;SDS011;31340;51.402;0.016;2022-12-07T12:03:51;19.13;;;8.23;;
44774;SDS011;31340;51.402;0.016;2022-12-07T12:06:23;20.45;;;7.50;;
44774;SDS011;31340;51.402;0.016;2022-12-07T12:15:01;18.33;;;7.15;;
44774;SDS011;31340;51.402;0.016;2022-12-07T12:17:46;16.38;;;7.47;;
44774;SDS011;31340;51.402;0.016;2022-12-07T12:20:37;18.60;;;8.43;;
44774;SDS011;31340;51.402;0.016;2022-12-07T12:23:11;19.67;;;7.80;;
44774;SDS011;31340;51.402;0.016;2022-12-07T12:25:49;17.83;;;7.43;;
44774;SDS011;31340;51.402;0.016;2022-12-07T12:31:06;15.35;;;7.13;;
44774;SDS011;31340;51.402;0.016;2022-12-07T12:33:51;18.23;;;8.48;;
44774;SDS011;31340;51.402;0.016;2022-12-07T12:44:03;15.45;;;6.25;;
44774;SDS011;31340;51.402;0.016;2022-12-07T12:57:36;14.85;;;7.43;;
44774;SDS011;31340;51.402;0.016;2022-12-07T13:00:15;13.75;;;7.38;;
44774;SDS011;31340;51.402;0.016;2022-12-07T13:05:19;14.98;;;7.35;;
44774;SDS011;31340;51.402;0.016;2022-12-07T13:08:33;16.48;;;7.28;;
44774;SDS011;31340;51.402;0.016;2022-12-07T13:10:50;14.43;;;6.67;;
44774;SDS011;31340;51.402;0.016;2022-12-07T13:15:52;19.48;;;7.70;;
44774;SDS011;31340;51.402;0.016;2022-12-07T13:23:39;17.42;;;8.27;;
44774;SDS011;31340;51.402;0.016;2022-12-07T13:29:10;16.75;;;8.27;;
44774;SDS011;31340;51.402;0.016;2022-12-07T13:31:50;17.40;;;7.93;;
44774;SDS011;31340;51.402;0.016;2022-12-07T13:34:33;17.83;;;6.70;;
44774;SDS011;31340;51.402;0.016;2022-12-07T13:39:45;23.33;;;7.68;;
44774;SDS011;31340;51.402;0.016;2022-12-07T13:44:54;14.88;;;7.47;;
44774;SDS011;31340;51.402;0.016;2022-12-07T13:49:56;15.02;;;8.50;;
44774;SDS011;31340;51.402;0.016;2022-12-07T13:57:33;14.23;;;7.43;;
44774;SDS011;31340;51.402;0.016;2022-12-07T14:00:04;23.10;;;8.07;;
44774;SDS011;31340;51.402;0.016;2022-12-07T14:02:33;14.40;;;7.82;;
44774;SDS011;31340;51.402;0.016;2022-12-07T14:05:16;15.82;;;8.15;;
44774;SDS011;31340;51.402;0.016;2022-12-07T14:10:31;15.18;;;7.60;;
44774;SDS011;31340;51.402;0.016;2022-12-07T14:16:18;17.27;;;6.82;;
44774;SDS011;31340;51.402;0.016;2022-12-07T14:18:47;22.02;;;8.40;;
44774;SDS011;31340;51.402;0.016;2022-12-07T14:21:16;17.48;;;8.18;;
44774;SDS011;31340;51.402;0.016;2022-12-07T14:23:45;15.45;;;7.07;;
44774;SDS011;31340;51.402;0.016;2022-12-07T14:26:29;11.95;;;6.53;;
44774;SDS011;31340;51.402;0.016;2022-12-07T14:29:18;12.95;;;6.25;;
44774;SDS011;31340;51.402;0.016;2022-12-07T14:31:50;18.20;;;7.47;;
44774;SDS011;31340;51.402;0.016;2022-12-07T14:34:22;14.18;;;5.55;;
44774;SDS011;31340;51.402;0.016;2022-12-07T14:36:50;13.35;;;4.93;;
44774;SDS011;31340;51.402;0.016;2022-12-07T14:39:18;11.43;;;5.72;;
44774;SDS011;31340;51.402;0.016;2022-12-07T14:41:45;15.48;;;5.78;;
44774;SDS011;31340;51.402;0.016;2022-12-07T14:44:20;13.70;;;5.18;;
44774;SDS011;31340;51.402;0.016;2022-12-07T14:46:54;16.13;;;5.80;;
44774;SDS011;31340;51.402;0.016;2022-12-07T14:49:41;14.68;;;5.32;;
44774;SDS011;31340;51.402;0.016;2022-12-07T14:52:23;13.05;;;6.20;;
44774;SDS011;31340;51.402;0.016;2022-12-07T14:55:23;19.08;;;6.18;;
44774;SDS011;31340;51.402;0.016;2022-12-07T14:57:55;18.00;;;6.57;;
44774;SDS011;31340;51.402;0.016;2022-12-07T15:00:24;22.95;;;8.25;;
44774;SDS011;31340;51.402;0.016;2022-12-07T15:02:53;23.17;;;8.55;;
44774;SDS011;31340;51.402;0.016;2022-12-07T15:05:21;22.55;;;8.80;;
44774;SDS011;31340;51.402;0.016;2022-12-07T15:07:49;27.88;;;11.13;;
44774;SDS011;31340;51.402;0.016;2022-12-07T15:12:50;22.38;;;10.15;;
44774;SDS011;31340;51.402;0.016;2022-12-07T15:15:18;26.05;;;9.82;;
44774;SDS011;31340;51.402;0.016;2022-12-07T15:17:45;26.77;;;10.80;;
44774;SDS011;31340;51.402;0.016;2022-12-07T15:20:13;21.42;;;9.35;;
44774;SDS011;31340;51.402;0.016;2022-12-07T15:22:44;36.83;;;10.82;;
44774;SDS011;31340;51.402;0.016;2022-12-07T15:25:12;43.90;;;9.75;;
44774;SDS011;31340;51.402;0.016;2022-12-07T15:27:40;32.08;;;9.27;;
44774;SDS011;31340;51.402;0.016;2022-12-07T15:30:08;28.42;;;8.70;;
44774;SDS011;31340;51.402;0.016;2022-12-07T15:32:35;23.33;;;7.63;;
44774;SDS011;31340;51.402;0.016;2022-12-07T15:35:03;26.10;;;7.43;;
44774;SDS011;31340;51.402;0.016;2022-12-07T15:37:31;20.20;;;6.80;;
44774;SDS011;31340;51.402;0.016;2022-12-07T15:39:59;24.95;;;7.47;;
44774;SDS011;31340;51.402;0.016;2022-12-07T15:42:33;16.65;;;7.00;;
44774;SDS011;31340;51.402;0.016;2022-12-07T15:45:03;19.25;;;6.60;;
44774;SDS011;31340;51.402;0.016;2022-12-07T15:47:34;36.40;;;7.18;;
44774;SDS011;31340;51.402;0.016;2022-12-07T15:50:24;22.42;;;7.30;;
44774;SDS011;31340;51.402;0.016;2022-12-07T15:52:51;21.30;;;8.13;;
44774;SDS011;31340;51.402;0.016;2022-12-07T15:55:19;13.95;;;6.95;;
44774;SDS011;31340;51.402;0.016;2022-12-07T15:57:46;14.70;;;6.65;;
44774;SDS011;31340;51.402;0.016;2022-12-07T16:00:15;14.90;;;7.72;;
44774;SDS011;31340;51.402;0.016;2022-12-07T16:02:43;21.20;;;6.85;;
44774;SDS011;31340;51.402;0.016;2022-12-07T16:05:10;18.83;;;7.82;;
44774;SDS011;31340;51.402;0.016;2022-12-07T16:07:38;16.73;;;7.35;;
44774;SDS011;31340;51.402;0.016;2022-12-07T16:10:06;14.43;;;6.75;;
44774;SDS011;31340;51.402;0.016;2022-12-07T16:12:35;20.08;;;8.32;;
44774;SDS011;31340;51.402;0.016;2022-12-07T16:15:03;23.55;;;8.65;;
44774;SDS011;31340;51.402;0.016;2022-12-07T16:17:31;17.27;;;8.23;;
44774;SDS011;31340;51.402;0.016;2022-12-07T16:20:00;18.52;;;7.72;;
44774;SDS011;31340;51.402;0.016;2022-12-07T16:22:28;18.02;;;8.40;;
44774;SDS011;31340;51.402;0.016;2022-12-07T16:24:57;17.88;;;8.27;;
44774;SDS011;31340;51.402;0.016;2022-12-07T16:27:24;14.93;;;7.55;;
44774;SDS011;31340;51.402;0.016;2022-12-07T16:29:52;16.48;;;7.63;;
44774;SDS011;31340;51.402;0.016;2022-12-07T16:32:20;15.60;;;7.03;;
44774;SDS011;31340;51.402;0.016;2022-12-07T16:34:47;20.33;;;7.82;;
44774;SDS011;31340;51.402;0.016;2022-12-07T16:37:15;15.23;;;7.00;;
44774;SDS011;31340;51.402;0.016;2022-12-07T16:39:43;14.88;;;7.20;;
44774;SDS011;31340;51.402;0.016;2022-12-07T16:42:10;22.10;;;7.65;;
44774;SDS011;31340;51.402;0.016;2022-12-07T16:44:38;21.38;;;8.88;;
44774;SDS011;31340;51.402;0.016;2022-12-07T16:47:08;21.67;;;9.13;;
44774;SDS011;31340;51.402;0.016;2022-12-07T16:49:35;18.95;;;9.00;;
44774;SDS011;31340;51.402;0.016;2022-12-07T16:52:03;18.83;;;8.60;;
44774;SDS011;31340;51.402;0.016;2022-12-07T16:54:47;19.67;;;7.70;;
44774;SDS011;31340;51.402;0.016;2022-12-07T16:57:17;12.95;;;7.03;;
44774;SDS011;31340;51.402;0.016;2022-12-07T16:59:50;13.75;;;7.95;;
44774;SDS011;31340;51.402;0.016;2022-12-07T17:02:19;16.83;;;7.75;;
44774;SDS011;31340;51.402;0.016;2022-12-07T17:04:47;23.45;;;9.55;;
44774;SDS011;31340;51.402;0.016;2022-12-07T17:07:15;18.80;;;9.90;;
44774;SDS011;31340;51.402;0.016;2022-12-07T17:09:43;24.65;;;12.35;;
44774;SDS011;31340;51.402;0.016;2022-12-07T17:12:10;23.65;;;10.57;;
44774;SDS011;31340;51.402;0.016;2022-12-07T17:14:38;20.95;;;9.25;;
44774;SDS011;31340;51.402;0.016;2022-12-07T17:17:25;27.05;;;11.93;;
44774;SDS011;31340;51.402;0.016;2022-12-07T17:19:53;19.25;;;10.68;;
44774;SDS011;31340;51.402;0.016;2022-12-07T17:22:21;18.48;;;9.43;;
44774;SDS011;31340;51.402;0.016;2022-12-07T17:24:49;21.90;;;8.77;;
44774;SDS011;31340;51.402;0.016;2022-12-07T17:27:16;18.42;;;8.13;;
44774;SDS011;31340;51.402;0.016;2022-12-07T17:29:44;18.63;;;8.43;;
44774;SDS011;31340;51.402;0.016;2022-12-07T17:32:11;20.88;;;8.43;;
44774;SDS011;31340;51.402;0.016;2022-12-07T17:34:39;20.52;;;8.85;;
44774;SDS011;31340;51.402;0.016;2022-12-07T17:37:07;21.27;;;9.85;;
44774;SDS011;31340;51.402;0.016;2022-12-07T17:39:34;20.05;;;9.77;;
44774;SDS011;31340;51.402;0.016;2022-12-07T17:42:02;17.58;;;9.20;;
44774;SDS011;31340;51.402;0.016;2022-12-07T17:44:48;17.85;;;10.50;;
44774;SDS011;31340;51.402;0.016;2022-12-07T17:47:16;23.98;;;12.63;;